NVVVAGGH

Guest
Details From NVVV - Bauerfield
To AGGH - HONIARA INTL
Flight Number -
Tags generated
Created
Modified
Stats Distance 692 nm / 1,282 km
Max Altitude 34,000 ft / 10,363 m
Waypoints 5
Social Downloads 0
Likes 0
Share VATSIM

Download

Looking for another format? Having issues loading an existing format? Contact us
Advertisement - Login to hide

Notes

Basic altitude profile: - Ascent Rate: 2500ft/min - Ascent Speed: 250kts - Cruise Altitude: 35000ft - Cruise Speed: 420kts - Descent Rate: 1500ft/min - Descent Speed: 250kts Options: - Use NATs: yes - Use PACOTS: yes - Use low airways: yes - Use high airways: yes

Route

NVVV VLI B598 ILEWA AGGH

ID Type Via Altitude Latitude Longitude Leg Dist Tot Dist Heading (true) Name
O NVVV APT - 0 ft / 0 m -17.69818˚ 168.31754˚ - 0 nm - Bauerfield
VLI VOR - 1,600 ft / 488 m -17.66222˚ 168.24389˚ 4 nm 4 nm 297° / 297° BAUERFIELD VOR-DME
NIPER FIX B598 (AWY-LO) 34,000 ft / 10,363 m -13.45833˚ 163.95500˚ 353 nm 358 nm 315° / 316° -
ILEWA FIX B598 (AWY-HI) 12,700 ft / 3,871 m -10.17000˚ 160.71833˚ 274 nm 632 nm 316° / 316° -
O AGGH APT - 0 ft / 0 m -9.42826˚ 160.05453˚ 59 nm 692 nm 319° / 319° HONIARA INTL

Altitude Profile

Advertisement - Login to hide

Weather


0- 5 10 15 20 25 30 35+ Temperature / ° C

Clouds and Precipitation
Forecast for 2017-12-15 12:00 UTC. Updated 2 hours ago

Ground ~20,000 ft ~40,000 ft Winds

NVVV

Details ICAO NVVV (VLI)
Name Bauerfield
Region Vanuatu
Timezone Pacific/Efate (UTC+11.0)
Stats Elevation 70 ft / 21 m (AMSL)
Location -17.698183° 168.317539°
Runways 1
Magnetic Variation 11.547° E

METAR

Not found

TAF

TAF NVVV 142230Z 1500/1524 10010KT 9999 SCT020 BKN040 PROB30 INTER 1500/1506 7000 -TSRA FEW006 BKN018 FEW022CB OVC035

Decode

Departure Runways

ID Width Length Bearing (true) Bearing (mag) Surface Threshold Offset Overrun Length
11 148 ft / 45 m 8,531 ft / 2,600 m 118.01° 106.46° Asphalt 0 ft / 0 m 197 ft / 60 m
29 148 ft / 45 m 8,531 ft / 2,600 m 298.01° 286.46° Asphalt 0 ft / 0 m 197 ft / 60 m

AGGH

Details ICAO AGGH (HIR)
Name HONIARA INTL
Region Solomon Islands
Timezone Pacific/Guadalcanal (UTC+11.0)
Stats Elevation 28 ft / 9 m (AMSL)
Location -9.428258° 160.054534°
Runways 1
Magnetic Variation 8.675° E

METAR

AGGH 151000Z 16002KT 9999 HZ FEW016 FEW018CB SCT300 26/25 Q1007

Decode

TAF

TAF AGGH 150500Z 1506/1606 VRB03KT 9999 FEW017 SCT028 PROB40 INTER 1506/1512 5000 TSSH BKN016 FEW017CB T 28 26 25 24 Q 1005 1007 1007 1005

Decode

Destination Runways

ID Width Length Bearing (true) Bearing (mag) Surface Threshold Offset Overrun Length
06 148 ft / 45 m 7,232 ft / 2,204 m 67.90° 59.23° Asphalt 0 ft / 0 m 184 ft / 56 m
24 148 ft / 45 m 7,232 ft / 2,204 m 247.90° 239.23° Asphalt 0 ft / 0 m 171 ft / 52 m

Popular Alternatives